METAR Data
IDs: Format: Raw Decoded Include TAF

Data at: 0838 UTC 18 Sep 2021

KOOA 180835Z AUTO 00000KT 10SM CLR 16/12 A3019 RMK AO2 T01600122